createdAt,value
2019-03-23T00:00:57.123Z,978.03
2019-03-23T00:02:07.040Z,978.13
2019-03-23T00:03:16.967Z,978.17
2019-03-23T00:04:26.892Z,978.13
2019-03-23T00:05:36.809Z,978.15
2019-03-23T00:06:46.728Z,978.17
2019-03-23T00:07:56.644Z,978.11
2019-03-23T00:09:06.571Z,978.12
2019-03-23T00:10:16.492Z,978.09
2019-03-23T00:11:26.508Z,978.08
2019-03-23T00:12:36.426Z,978.09
2019-03-23T00:13:46.350Z,978.09
2019-03-23T00:14:56.272Z,978.09
2019-03-23T00:16:06.196Z,978.11
2019-03-23T00:17:16.112Z,978.19
2019-03-23T00:18:26.042Z,978.13
2019-03-23T00:19:35.980Z,978.14
2019-03-23T00:20:45.904Z,978.08
2019-03-23T00:21:55.824Z,978
2019-03-23T00:23:05.757Z,978.15
2019-03-23T00:24:15.679Z,978.11
2019-03-23T00:25:25.601Z,978.03
2019-03-23T00:26:35.536Z,978
2019-03-23T00:27:45.458Z,978.03
2019-03-23T00:28:56.231Z,978.04
2019-03-23T00:30:06.153Z,978.01
2019-03-23T00:31:16.107Z,978.01
2019-03-23T00:32:26.026Z,977.97
2019-03-23T00:33:35.949Z,977.98
2019-03-23T00:34:45.872Z,977.99
2019-03-23T00:35:55.797Z,977.99
2019-03-23T00:37:05.719Z,977.95
2019-03-23T00:38:15.639Z,977.91
2019-03-23T00:39:25.564Z,977.93
2019-03-23T00:40:35.613Z,977.94
2019-03-23T00:41:45.536Z,977.95
2019-03-23T00:42:55.459Z,978.04
2019-03-23T00:44:07.386Z,978.15
2019-03-23T00:45:17.466Z,978.08
2019-03-23T00:46:27.442Z,978.04
2019-03-23T00:47:37.360Z,978.03
2019-03-23T00:48:47.281Z,978.05
2019-03-23T00:49:57.224Z,978.01
2019-03-23T00:51:07.148Z,977.94
2019-03-23T00:52:17.170Z,977.93
2019-03-23T00:53:27.094Z,977.84
2019-03-23T00:54:37.017Z,977.88
2019-03-23T00:55:46.938Z,977.85
2019-03-23T00:56:56.858Z,977.81
2019-03-23T00:58:06.774Z,977.81
2019-03-23T00:59:16.691Z,977.79
2019-03-23T01:00:26.621Z,977.84
2019-03-23T01:01:36.552Z,977.79
2019-03-23T01:02:46.477Z,977.75
2019-03-23T01:03:56.403Z,977.77
2019-03-23T01:05:06.331Z,977.81
2019-03-23T01:06:16.251Z,977.79
2019-03-23T01:07:26.203Z,977.77
2019-03-23T01:08:36.122Z,977.79
2019-03-23T01:09:45.894Z,977.77
2019-03-23T01:10:55.821Z,977.76
2019-03-23T01:12:05.742Z,977.66
2019-03-23T01:13:15.702Z,977.79
2019-03-23T01:14:25.632Z,977.76
2019-03-23T01:15:35.563Z,977.83
2019-03-23T01:16:45.486Z,977.87
2019-03-23T01:17:55.406Z,977.81
2019-03-23T01:19:05.349Z,977.71
2019-03-23T01:20:15.275Z,977.75
2019-03-23T01:21:25.194Z,977.75
2019-03-23T01:22:35.111Z,977.8
2019-03-23T01:23:45.036Z,977.75
2019-03-23T01:24:54.980Z,977.67
2019-03-23T01:26:04.994Z,977.68
2019-03-23T01:27:15.276Z,977.68
2019-03-23T01:28:25.202Z,977.67
2019-03-23T01:29:35.119Z,977.65
2019-03-23T01:30:45.041Z,977.66
2019-03-23T01:31:54.962Z,977.64
2019-03-23T01:33:04.885Z,977.62
2019-03-23T01:34:14.808Z,977.61
2019-03-23T01:35:24.526Z,977.57
2019-03-23T01:36:34.478Z,977.61
2019-03-23T01:37:44.401Z,977.64
2019-03-23T01:38:54.419Z,977.65
2019-03-23T01:40:04.345Z,977.67
2019-03-23T01:41:14.312Z,977.67
2019-03-23T01:42:24.227Z,977.67
2019-03-23T01:43:34.160Z,977.66
2019-03-23T01:44:44.086Z,977.71
2019-03-23T01:45:54.033Z,977.59
2019-03-23T01:47:03.976Z,977.51
2019-03-23T01:48:13.899Z,977.57
2019-03-23T01:49:23.829Z,977.51
2019-03-23T01:50:33.798Z,977.62
2019-03-23T01:51:43.718Z,977.58
2019-03-23T01:52:53.636Z,977.54
2019-03-23T01:54:03.562Z,977.59
2019-03-23T01:55:13.484Z,977.58
2019-03-23T01:56:23.206Z,977.55
2019-03-23T01:57:33.131Z,977.6
2019-03-23T01:58:43.046Z,977.58
2019-03-23T01:59:53.022Z,977.59
2019-03-23T02:01:02.687Z,977.52
2019-03-23T02:02:12.618Z,977.55
2019-03-23T02:03:22.540Z,977.53
2019-03-23T02:04:32.265Z,977.57
2019-03-23T02:05:42.184Z,977.61
2019-03-23T02:06:52.107Z,977.58
2019-03-23T02:08:02.041Z,977.66
2019-03-23T02:09:11.986Z,977.57
2019-03-23T02:10:21.953Z,977.6
2019-03-23T02:11:31.873Z,977.63
2019-03-23T02:12:41.840Z,977.61
2019-03-23T02:13:51.875Z,977.54
2019-03-23T02:15:01.792Z,977.53
2019-03-23T02:16:11.723Z,977.6
2019-03-23T02:17:21.654Z,977.54
2019-03-23T02:18:31.599Z,977.6
2019-03-23T02:19:41.618Z,977.59
2019-03-23T02:20:51.550Z,977.58
2019-03-23T02:22:01.220Z,977.49
2019-03-23T02:23:11.147Z,977.53
2019-03-23T02:24:21.076Z,977.49
2019-03-23T02:25:31.002Z,977.52
2019-03-23T02:26:40.938Z,977.49
2019-03-23T02:27:50.861Z,977.48
2019-03-23T02:29:00.785Z,977.52
2019-03-23T02:30:10.731Z,977.46
2019-03-23T02:31:20.682Z,977.5
2019-03-23T02:32:30.628Z,977.5
2019-03-23T02:33:40.559Z,977.58
2019-03-23T02:34:50.498Z,977.55
2019-03-23T02:36:00.447Z,977.54
2019-03-23T02:37:10.382Z,977.59
2019-03-23T02:38:32.826Z,977.53
2019-03-23T02:39:42.784Z,977.55
2019-03-23T02:40:52.772Z,977.55
2019-03-23T02:42:02.716Z,977.55
2019-03-23T02:43:12.754Z,977.59
2019-03-23T02:44:22.721Z,977.61
2019-03-23T02:45:32.659Z,977.66
2019-03-23T02:46:42.600Z,977.68
2019-03-23T02:47:52.646Z,977.76
2019-03-23T02:49:02.591Z,977.83
2019-03-23T02:50:12.282Z,977.77
2019-03-23T02:51:22.286Z,977.78
2019-03-23T02:52:32.246Z,977.65
2019-03-23T02:53:42.212Z,977.65
2019-03-23T02:54:52.153Z,977.7
2019-03-23T02:56:02.170Z,977.69
2019-03-23T02:57:12.102Z,977.81
2019-03-23T02:58:22.029Z,977.78
2019-03-23T02:59:32.002Z,977.78
2019-03-23T03:00:41.935Z,977.79
2019-03-23T03:01:51.874Z,977.73
2019-03-23T03:03:01.818Z,977.68
2019-03-23T03:04:11.750Z,977.69
2019-03-23T03:05:21.744Z,977.63
2019-03-23T03:06:31.677Z,977.64
2019-03-23T03:07:43.078Z,977.6
2019-03-23T03:08:53.520Z,977.59
2019-03-23T03:10:03.461Z,977.68
2019-03-23T03:11:13.504Z,977.66
2019-03-23T03:12:23.478Z,977.66
2019-03-23T03:13:33.411Z,977.62
2019-03-23T03:14:43.344Z,977.64
2019-03-23T03:15:53.301Z,977.57
2019-03-23T03:17:03.368Z,977.52
2019-03-23T03:18:13.315Z,977.51
2019-03-23T03:19:23.334Z,977.5
2019-03-23T03:20:33.270Z,977.57
2019-03-23T03:21:43.260Z,977.63
2019-03-23T03:22:53.184Z,977.61
2019-03-23T03:24:03.126Z,977.76
2019-03-23T03:25:13.058Z,977.8
2019-03-23T03:26:22.993Z,977.72
2019-03-23T03:27:32.921Z,977.81
2019-03-23T03:28:42.596Z,977.71
2019-03-23T03:29:52.276Z,977.72
2019-03-23T03:31:02.299Z,977.77
2019-03-23T03:32:12.105Z,977.85
2019-03-23T03:33:22.114Z,977.76
2019-03-23T03:34:31.863Z,977.69
2019-03-23T03:35:41.810Z,977.74
2019-03-23T03:36:51.495Z,977.77
2019-03-23T03:38:01.426Z,977.81
2019-03-23T03:39:11.363Z,977.84
2019-03-23T03:40:21.427Z,977.83
2019-03-23T03:41:31.383Z,977.85
2019-03-23T03:42:41.308Z,977.87
2019-03-23T03:43:51.259Z,977.9
2019-03-23T03:45:01.205Z,977.91
2019-03-23T03:46:11.178Z,977.89
2019-03-23T03:47:21.116Z,977.89
2019-03-23T03:48:31.083Z,977.83
2019-03-23T03:49:41.032Z,977.89
2019-03-23T03:50:50.973Z,977.85
2019-03-23T03:52:00.908Z,977.87
2019-03-23T03:53:10.855Z,977.82
2019-03-23T03:54:20.559Z,977.9
2019-03-23T03:55:30.494Z,977.92
2019-03-23T03:56:40.456Z,977.96
2019-03-23T03:57:50.459Z,977.91
2019-03-23T03:59:00.417Z,977.85
2019-03-23T04:00:10.138Z,977.87
2019-03-23T04:01:20.074Z,977.89
2019-03-23T04:02:30.004Z,977.92
2019-03-23T04:03:39.973Z,977.9
2019-03-23T04:04:49.681Z,977.89
2019-03-23T04:05:59.622Z,977.82
2019-03-23T04:07:09.549Z,977.84
2019-03-23T04:08:19.227Z,977.86
2019-03-23T04:09:29.020Z,977.84
2019-03-23T04:10:40.989Z,977.8
2019-03-23T04:11:50.693Z,977.96
2019-03-23T04:13:00.628Z,977.9
2019-03-23T04:14:10.610Z,977.92
2019-03-23T04:15:20.613Z,977.94
2019-03-23T04:16:30.543Z,977.93
2019-03-23T04:17:40.493Z,977.95
2019-03-23T04:18:50.435Z,977.98
2019-03-23T04:20:00.620Z,977.93
2019-03-23T04:21:10.710Z,977.93
2019-03-23T04:22:20.402Z,977.97
2019-03-23T04:23:30.341Z,977.97
2019-03-23T04:24:40.030Z,978.02
2019-03-23T04:25:49.963Z,978
2019-03-23T04:27:00.005Z,978.03
2019-03-23T04:28:09.731Z,978.04
2019-03-23T04:29:19.721Z,978.01
2019-03-23T04:30:29.669Z,978
2019-03-23T04:31:39.606Z,978.17
2019-03-23T04:32:49.538Z,977.98
2019-03-23T04:33:59.485Z,978.04
2019-03-23T04:35:09.408Z,978.03
2019-03-23T04:36:19.358Z,977.95
2019-03-23T04:37:29.286Z,977.99
2019-03-23T04:38:39.218Z,978.01
2019-03-23T04:39:49.145Z,977.89
2019-03-23T04:40:59.108Z,977.99
2019-03-23T04:42:08.813Z,977.91
2019-03-23T04:43:18.733Z,977.96
2019-03-23T04:44:28.752Z,977.9
2019-03-23T04:45:38.676Z,977.88
2019-03-23T04:46:48.600Z,977.85
2019-03-23T04:47:58.516Z,977.91
2019-03-23T04:49:08.442Z,977.98
2019-03-23T04:50:18.475Z,977.94
2019-03-23T04:51:28.393Z,977.77
2019-03-23T04:52:38.331Z,977.79
2019-03-23T04:53:48.004Z,977.77
2019-03-23T04:54:57.933Z,977.68
2019-03-23T04:56:07.891Z,977.72
2019-03-23T04:57:17.811Z,977.73
2019-03-23T04:58:27.756Z,977.83
2019-03-23T04:59:37.673Z,977.75
2019-03-23T05:00:47.591Z,977.81
2019-03-23T05:01:57.521Z,977.83
2019-03-23T05:03:07.450Z,977.81
2019-03-23T05:04:17.369Z,977.81
2019-03-23T05:05:27.334Z,977.82
2019-03-23T05:06:37.258Z,977.76
2019-03-23T05:07:47.879Z,977.81
2019-03-23T05:08:57.796Z,977.85
2019-03-23T05:10:07.731Z,977.8
2019-03-23T05:11:17.687Z,977.87
2019-03-23T05:12:27.609Z,977.86
2019-03-23T05:13:37.633Z,977.91
2019-03-23T05:14:47.550Z,977.96
2019-03-23T05:15:57.469Z,978.07
2019-03-23T05:17:07.397Z,978.02
2019-03-23T05:18:17.069Z,978.05
2019-03-23T05:19:27.241Z,978.03
2019-03-23T05:20:37.162Z,978.1
2019-03-23T05:21:46.874Z,978.02
2019-03-23T05:22:56.489Z,978.02
2019-03-23T05:24:06.410Z,978.07
2019-03-23T05:25:16.382Z,978.05
2019-03-23T05:26:26.307Z,978.05
2019-03-23T05:27:35.985Z,978.06
2019-03-23T05:28:45.901Z,978.13
2019-03-23T05:29:55.827Z,978.01
2019-03-23T05:31:07.089Z,978
2019-03-23T05:32:17.148Z,978.05
2019-03-23T05:33:27.067Z,978.06
2019-03-23T05:34:36.994Z,977.99
2019-03-23T05:35:46.921Z,978.06
2019-03-23T05:36:56.844Z,978.09
2019-03-23T05:38:06.785Z,978.03
2019-03-23T05:39:16.709Z,978.03
2019-03-23T05:40:26.633Z,978.07
2019-03-23T05:41:36.305Z,978.05
2019-03-23T05:42:46.354Z,977.97
2019-03-23T05:43:56.311Z,977.97
2019-03-23T05:45:06.234Z,977.92
2019-03-23T05:46:16.167Z,977.98
2019-03-23T05:47:26.092Z,978.01
2019-03-23T05:48:36.111Z,977.9
2019-03-23T05:49:46.038Z,977.91
2019-03-23T05:50:55.972Z,977.85
2019-03-23T05:52:05.893Z,977.78
2019-03-23T05:53:15.844Z,977.8
2019-03-23T05:54:25.762Z,977.85
2019-03-23T05:55:35.685Z,977.82
2019-03-23T05:56:45.600Z,977.84
2019-03-23T05:57:55.521Z,977.8
2019-03-23T05:59:05.444Z,977.88
2019-03-23T06:00:15.364Z,977.92
2019-03-23T06:01:25.286Z,977.85
2019-03-23T06:02:35.271Z,977.9
2019-03-23T06:03:45.202Z,977.88
2019-03-23T06:04:55.133Z,977.92
2019-03-23T06:06:05.052Z,977.89
2019-03-23T06:07:14.969Z,977.92
2019-03-23T06:08:24.887Z,978.01
2019-03-23T06:09:34.812Z,978.02
2019-03-23T06:10:44.794Z,977.92
2019-03-23T06:11:54.812Z,977.88
2019-03-23T06:13:04.731Z,977.92
2019-03-23T06:14:14.652Z,977.89
2019-03-23T06:15:24.593Z,977.91
2019-03-23T06:16:34.534Z,977.98
2019-03-23T06:17:44.554Z,977.89
2019-03-23T06:18:54.474Z,977.93
2019-03-23T06:20:04.750Z,977.96
2019-03-23T06:21:14.782Z,977.98
2019-03-23T06:22:24.710Z,978.01
2019-03-23T06:23:34.678Z,977.97
2019-03-23T06:24:44.646Z,978.02
2019-03-23T06:25:54.315Z,977.96
2019-03-23T06:27:06.895Z,978.08
2019-03-23T06:28:16.812Z,978.03
2019-03-23T06:29:26.743Z,978.09
2019-03-23T06:30:36.680Z,978.08
2019-03-23T06:31:46.606Z,978.12
2019-03-23T06:32:56.522Z,978.24
2019-03-23T06:34:07.093Z,978.09
2019-03-23T06:35:17.164Z,978.08
2019-03-23T06:36:27.089Z,978.12
2019-03-23T06:37:37.011Z,978.21
2019-03-23T06:38:46.938Z,978.07
2019-03-23T06:40:05.851Z,978.11
2019-03-23T06:41:15.883Z,978.08
2019-03-23T06:42:25.799Z,978.02
2019-03-23T06:43:35.727Z,977.97
2019-03-23T06:44:45.648Z,977.85
2019-03-23T06:45:55.563Z,977.93
2019-03-23T06:47:05.590Z,977.95
2019-03-23T06:48:15.517Z,978.03
2019-03-23T06:49:25.442Z,978.07
2019-03-23T06:50:35.364Z,978.05
2019-03-23T06:51:45.289Z,978.11
2019-03-23T06:52:55.308Z,978.11
2019-03-23T06:54:05.227Z,978.16
2019-03-23T06:55:15.158Z,978.2
2019-03-23T06:56:25.085Z,978.22
2019-03-23T06:57:35.005Z,978.25
2019-03-23T06:58:45.034Z,978.27
2019-03-23T06:59:54.965Z,978.36
2019-03-23T07:01:04.886Z,978.29
2019-03-23T07:02:14.811Z,978.26
2019-03-23T07:03:24.728Z,978.26
2019-03-23T07:04:34.650Z,978.34
2019-03-23T07:05:44.571Z,978.28
2019-03-23T07:06:54.523Z,978.27
2019-03-23T07:08:04.447Z,978.21
2019-03-23T07:09:16.287Z,978.21
2019-03-23T07:10:26.463Z,978.25
2019-03-23T07:11:36.405Z,978.26
2019-03-23T07:12:46.326Z,978.26
2019-03-23T07:13:56.255Z,978.3
2019-03-23T07:15:06.179Z,978.38
2019-03-23T07:16:27.128Z,978.38
2019-03-23T07:17:37.065Z,978.4
2019-03-23T07:18:46.983Z,978.48
2019-03-23T07:19:56.908Z,978.45
2019-03-23T07:21:06.582Z,978.54
2019-03-23T07:22:16.610Z,978.43
2019-03-23T07:23:26.315Z,978.48
2019-03-23T07:24:36.243Z,978.54
2019-03-23T07:25:45.920Z,978.52
2019-03-23T07:26:55.841Z,978.56
2019-03-23T07:28:07.909Z,978.51
2019-03-23T07:29:17.995Z,978.49
2019-03-23T07:30:27.924Z,978.49
2019-03-23T07:31:37.872Z,978.5
2019-03-23T07:32:47.795Z,978.46
2019-03-23T07:33:57.730Z,978.39
2019-03-23T07:35:09.058Z,978.36
2019-03-23T07:36:18.995Z,978.3
2019-03-23T07:37:28.929Z,978.34
2019-03-23T07:38:38.599Z,978.4
2019-03-23T07:39:48.638Z,978.41
2019-03-23T07:40:58.602Z,978.51
2019-03-23T07:42:08.290Z,978.64
2019-03-23T07:43:18.218Z,978.41
2019-03-23T07:44:28.194Z,978.41
2019-03-23T07:45:38.223Z,978.34
2019-03-23T07:46:48.149Z,978.43
2019-03-23T07:47:58.076Z,978.43
2019-03-23T07:49:08.011Z,978.42
2019-03-23T07:50:17.940Z,978.42
2019-03-23T07:51:27.964Z,978.45
2019-03-23T07:52:37.883Z,978.48
2019-03-23T07:53:47.810Z,978.53
2019-03-23T07:54:57.734Z,978.5
2019-03-23T07:56:07.658Z,978.55
2019-03-23T07:57:17.579Z,978.73
2019-03-23T07:58:27.244Z,978.81
2019-03-23T07:59:37.166Z,978.57
2019-03-23T08:00:47.089Z,978.57
2019-03-23T08:01:57.020Z,978.67
2019-03-23T08:03:07.151Z,978.77
2019-03-23T08:04:16.871Z,978.61
2019-03-23T08:05:26.796Z,978.58
2019-03-23T08:06:36.719Z,978.58
2019-03-23T08:07:46.636Z,978.52
2019-03-23T08:08:56.567Z,978.48
2019-03-23T08:10:06.507Z,978.46
2019-03-23T08:11:16.434Z,978.44
2019-03-23T08:12:26.359Z,978.41
2019-03-23T08:13:36.289Z,978.42
2019-03-23T08:14:46.331Z,978.49
2019-03-23T08:15:56.258Z,978.42
2019-03-23T08:17:06.181Z,978.37
2019-03-23T08:18:16.165Z,978.38
2019-03-23T08:19:26.097Z,978.37
2019-03-23T08:20:36.115Z,978.39
2019-03-23T08:21:46.036Z,978.44
2019-03-23T08:22:55.968Z,978.48
2019-03-23T08:24:05.918Z,978.54
2019-03-23T08:25:15.850Z,978.58
2019-03-23T08:26:25.532Z,978.45
2019-03-23T08:27:35.459Z,978.44
2019-03-23T08:28:46.901Z,978.6
2019-03-23T08:29:56.821Z,978.48
2019-03-23T08:31:06.751Z,978.52
2019-03-23T08:32:16.676Z,978.48
2019-03-23T08:33:26.365Z,978.41
2019-03-23T08:34:36.285Z,978.42
2019-03-23T08:35:46.208Z,978.53
2019-03-23T08:36:56.130Z,978.6
2019-03-23T08:38:07.417Z,978.46
2019-03-23T08:39:17.350Z,978.56
2019-03-23T08:40:27.274Z,978.51
2019-03-23T08:41:38.657Z,978.42
2019-03-23T08:42:48.582Z,978.47
2019-03-23T08:43:58.608Z,978.5
2019-03-23T08:45:08.550Z,978.5
2019-03-23T08:46:18.476Z,978.41
2019-03-23T08:47:28.405Z,978.52
2019-03-23T08:48:38.071Z,978.57
2019-03-23T08:49:48.099Z,978.61
2019-03-23T08:51:00.107Z,978.54
2019-03-23T08:52:10.063Z,978.41
2019-03-23T08:53:19.991Z,978.56
2019-03-23T08:54:29.919Z,978.45
2019-03-23T08:55:39.939Z,978.62
2019-03-23T08:56:49.857Z,978.69
2019-03-23T08:57:59.774Z,978.79
2019-03-23T08:59:09.701Z,978.65
2019-03-23T09:00:19.620Z,978.58
2019-03-23T09:01:29.559Z,978.67
2019-03-23T09:02:39.481Z,978.67
2019-03-23T09:03:52.585Z,978.78
2019-03-23T09:05:02.753Z,978.86
2019-03-23T09:06:12.687Z,978.81
2019-03-23T09:07:22.613Z,978.81
2019-03-23T09:08:32.535Z,978.69
2019-03-23T09:09:42.455Z,978.78
2019-03-23T09:11:01.927Z,978.77
2019-03-23T09:12:22.959Z,978.69
2019-03-23T09:13:40.405Z,978.57
2019-03-23T09:14:50.610Z,978.76
2019-03-23T09:16:00.665Z,978.85
2019-03-23T09:17:10.591Z,978.73
2019-03-23T09:18:20.515Z,978.73
2019-03-23T09:19:30.442Z,979.15
2019-03-23T09:20:40.159Z,978.68
2019-03-23T09:21:49.852Z,978.64
2019-03-23T09:22:59.793Z,978.8
2019-03-23T09:24:09.715Z,978.72
2019-03-23T09:25:19.634Z,978.63
2019-03-23T09:26:29.580Z,978.66
2019-03-23T09:27:39.518Z,978.57
2019-03-23T09:28:49.444Z,978.69
2019-03-23T09:29:59.422Z,978.71
2019-03-23T09:31:09.371Z,978.71
2019-03-23T09:32:19.318Z,978.8
2019-03-23T09:33:29.250Z,978.78
2019-03-23T09:34:39.203Z,978.78
2019-03-23T09:35:49.124Z,978.74
2019-03-23T09:36:59.049Z,978.77
2019-03-23T09:38:08.968Z,978.76
2019-03-23T09:39:18.896Z,979.12
2019-03-23T09:40:28.820Z,978.95
2019-03-23T09:41:38.848Z,978.85
2019-03-23T09:42:48.768Z,978.83
2019-03-23T09:43:58.692Z,978.79
2019-03-23T09:45:08.618Z,978.75
2019-03-23T09:46:19.670Z,978.78
2019-03-23T09:47:29.699Z,978.7
2019-03-23T09:48:39.659Z,978.76
2019-03-23T09:49:49.587Z,978.66
2019-03-23T09:50:59.512Z,978.77
2019-03-23T09:52:09.433Z,978.69
2019-03-23T09:53:19.464Z,978.91
2019-03-23T09:54:29.383Z,978.65
2019-03-23T09:55:39.340Z,978.92
2019-03-23T09:56:49.267Z,979.13
2019-03-23T09:58:00.139Z,978.76
2019-03-23T09:59:10.061Z,978.92
2019-03-23T10:00:19.980Z,978.71
2019-03-23T10:01:29.907Z,978.7
2019-03-23T10:02:39.836Z,978.98
2019-03-23T10:03:49.760Z,978.78
2019-03-23T10:04:59.740Z,978.76
2019-03-23T10:06:09.691Z,978.67
2019-03-23T10:07:19.631Z,978.93
2019-03-23T10:08:29.299Z,978.7
2019-03-23T10:09:39.238Z,978.84
2019-03-23T10:10:49.157Z,978.72
2019-03-23T10:11:59.279Z,978.82
2019-03-23T10:13:09.309Z,978.74
2019-03-23T10:14:19.293Z,978.84
2019-03-23T10:15:29.222Z,978.86
2019-03-23T10:16:39.245Z,979.11
2019-03-23T10:17:49.172Z,979.13
2019-03-23T10:18:59.103Z,979.1
2019-03-23T10:20:09.028Z,979.09
2019-03-23T10:21:18.979Z,979.05
2019-03-23T10:22:29.024Z,979.1
2019-03-23T10:23:38.945Z,978.98
2019-03-23T10:24:48.865Z,979.34
2019-03-23T10:25:58.787Z,979.11
2019-03-23T10:27:08.464Z,979.15
2019-03-23T10:28:18.472Z,979.12
2019-03-23T10:29:28.396Z,979.08
2019-03-23T10:30:38.317Z,979.04
2019-03-23T10:31:48.244Z,978.91
2019-03-23T10:32:58.665Z,979.19
2019-03-23T10:34:08.358Z,979.07
2019-03-23T10:35:18.280Z,979.11
2019-03-23T10:36:28.213Z,978.91
2019-03-23T10:37:38.137Z,978.81
2019-03-23T10:38:48.079Z,978.91
2019-03-23T10:39:58.048Z,978.96
2019-03-23T10:41:10.336Z,979.28
2019-03-23T10:42:20.262Z,978.93
2019-03-23T10:43:29.942Z,979
2019-03-23T10:44:41.879Z,979.06
2019-03-23T10:45:51.916Z,978.81
2019-03-23T10:47:01.858Z,978.89
2019-03-23T10:48:12.115Z,978.63
2019-03-23T10:49:22.279Z,978.92
2019-03-23T10:50:32.202Z,978.98
2019-03-23T10:51:42.128Z,978.93
2019-03-23T10:52:52.059Z,978.82
2019-03-23T10:54:03.967Z,978.81
2019-03-23T10:55:14.088Z,978.93
2019-03-23T10:56:24.012Z,978.89
2019-03-23T10:57:33.983Z,978.85
2019-03-23T10:58:43.906Z,979.19
2019-03-23T10:59:53.826Z,978.87
2019-03-23T11:01:03.748Z,978.83
2019-03-23T11:02:13.668Z,979.04
2019-03-23T11:03:23.585Z,979
2019-03-23T11:04:33.506Z,978.81
2019-03-23T11:05:43.426Z,978.9
2019-03-23T11:06:53.343Z,978.97
2019-03-23T11:08:03.266Z,978.91
2019-03-23T11:09:13.220Z,978.8
2019-03-23T11:10:23.165Z,978.64
2019-03-23T11:11:42.383Z,978.82
2019-03-23T11:12:52.303Z,978.73
2019-03-23T11:14:02.262Z,978.8
2019-03-23T11:15:12.785Z,978.67
2019-03-23T11:16:22.714Z,978.55
2019-03-23T11:17:32.643Z,978.91
2019-03-23T11:18:42.572Z,978.78
2019-03-23T11:19:52.497Z,978.72
2019-03-23T11:21:03.809Z,978.83
2019-03-23T11:22:13.481Z,978.76
2019-03-23T11:23:23.401Z,978.78
2019-03-23T11:24:33.327Z,978.82
2019-03-23T11:25:43.256Z,979.1
2019-03-23T11:26:53.208Z,979.08
2019-03-23T11:28:03.138Z,978.69
2019-03-23T11:29:13.063Z,979.02
2019-03-23T11:30:22.992Z,979.42
2019-03-23T11:31:32.917Z,979
2019-03-23T11:32:42.897Z,978.95
2019-03-23T11:33:52.861Z,978.93
2019-03-23T11:35:02.826Z,978.91
2019-03-23T11:36:13.445Z,979.16
2019-03-23T11:37:23.508Z,978.97
2019-03-23T11:38:34.077Z,979.19
2019-03-23T11:39:43.758Z,978.88
2019-03-23T11:40:55.226Z,979.05
2019-03-23T11:42:05.243Z,979.21
2019-03-23T11:43:15.165Z,979.17
2019-03-23T11:44:25.101Z,979.02
2019-03-23T11:45:35.029Z,979.09
2019-03-23T11:46:44.955Z,978.91
2019-03-23T11:47:54.910Z,978.86
2019-03-23T11:49:04.840Z,979.16
2019-03-23T11:50:14.879Z,979.2
2019-03-23T11:51:24.806Z,979.3
2019-03-23T11:52:34.733Z,978.98
2019-03-23T11:53:44.659Z,979.09
2019-03-23T11:54:54.600Z,979.19
2019-03-23T11:56:04.539Z,979.35
2019-03-23T11:57:14.471Z,979.32
2019-03-23T11:58:24.401Z,979.26
2019-03-23T11:59:34.362Z,979.34
2019-03-23T12:00:44.300Z,979.37
2019-03-23T12:01:54.250Z,979.44
2019-03-23T12:03:04.186Z,979.48
2019-03-23T12:04:14.120Z,979.48
2019-03-23T12:05:25.648Z,979.97
2019-03-23T12:06:35.582Z,979.57
2019-03-23T12:07:45.576Z,979.64
2019-03-23T12:08:55.515Z,979.24
2019-03-23T12:10:05.455Z,979.71
2019-03-23T12:11:15.393Z,979.12
2019-03-23T12:12:25.330Z,979.3
2019-03-23T12:13:35.264Z,979.3
2019-03-23T12:14:45.195Z,979.3
2019-03-23T12:15:55.133Z,979.41
2019-03-23T12:17:05.062Z,979.48
2019-03-23T12:18:15.006Z,979.43
2019-03-23T12:19:25.042Z,979.44
2019-03-23T12:20:34.982Z,979.35
2019-03-23T12:21:44.927Z,979.5
2019-03-23T12:22:56.129Z,979.56
2019-03-23T12:24:06.062Z,979.56
2019-03-23T12:25:16.040Z,979.51
2019-03-23T12:26:25.973Z,979.64
2019-03-23T12:27:35.916Z,979.55
2019-03-23T12:28:45.860Z,979.78
2019-03-23T12:30:03.196Z,979.55
2019-03-23T12:31:16.753Z,979.1
2019-03-23T12:32:26.681Z,979.61
2019-03-23T12:33:36.606Z,979.61
2019-03-23T12:34:46.543Z,979.63
2019-03-23T12:35:56.472Z,979.79
2019-03-23T12:37:06.410Z,979.61
2019-03-23T12:38:16.337Z,979.53
2019-03-23T12:39:26.282Z,979.59
2019-03-23T12:40:36.534Z,979.41
2019-03-23T12:41:46.613Z,979.36
2019-03-23T13:49:44.789Z,978.92
2019-03-23T13:50:54.708Z,978.84
2019-03-23T13:52:04.654Z,979.31
2019-03-23T13:53:14.587Z,978.88
2019-03-23T13:54:24.519Z,978.83
2019-03-23T13:55:34.446Z,978.82
2019-03-23T13:56:44.370Z,978.99
2019-03-23T13:57:54.293Z,979.37
2019-03-23T13:59:04.221Z,979.41
2019-03-23T14:00:14.150Z,979.63
2019-03-23T14:01:24.074Z,979.26
2019-03-23T14:02:33.769Z,978.99
2019-03-23T14:03:43.693Z,979.03
2019-03-23T14:04:53.622Z,978.93
2019-03-23T14:06:03.602Z,979.01
2019-03-23T14:07:13.575Z,979.16
2019-03-23T14:08:23.261Z,978.97
2019-03-23T14:09:33.181Z,978.99
2019-03-23T14:10:43.148Z,979.19
2019-03-23T14:11:55.035Z,979.08
2019-03-23T14:13:05.269Z,979.2
2019-03-23T14:14:15.198Z,979.12
2019-03-23T14:15:25.117Z,979.13
2019-03-23T14:16:35.041Z,979.16
2019-03-23T14:17:44.983Z,979.24
2019-03-23T14:18:54.912Z,979.2
2019-03-23T14:20:04.835Z,979.24
2019-03-23T14:21:14.776Z,979.06
2019-03-23T14:22:24.703Z,979.12
2019-03-23T14:23:34.654Z,979.37
2019-03-23T14:24:44.709Z,979.44
2019-03-23T14:25:54.643Z,979.38
2019-03-23T14:27:04.576Z,979.29
2019-03-23T14:28:14.501Z,979.24
2019-03-23T14:29:24.423Z,979.92
2019-03-23T14:30:34.360Z,979.59
2019-03-23T14:31:44.281Z,979.67
2019-03-23T14:32:54.205Z,979.4
2019-03-23T14:34:04.136Z,979.25
2019-03-23T14:35:13.822Z,979.64
2019-03-23T14:36:23.746Z,979.77
2019-03-23T14:37:33.436Z,979.5
2019-03-23T14:38:43.396Z,979.42
2019-03-23T14:39:53.354Z,979.31
2019-03-23T14:41:03.283Z,979.52
2019-03-23T14:42:13.261Z,979.43
2019-03-23T14:43:23.182Z,979.53
2019-03-23T14:44:33.125Z,979.76
2019-03-23T14:45:43.061Z,979.71
2019-03-23T14:46:52.999Z,979.84
2019-03-23T14:48:02.670Z,979.75
2019-03-23T14:49:12.594Z,979.81
2019-03-23T14:50:22.528Z,979.81
2019-03-23T14:51:32.480Z,979.74
2019-03-23T14:52:42.448Z,980.05
2019-03-23T14:53:52.474Z,979.56
2019-03-23T14:55:02.408Z,979.66
2019-03-23T14:56:12.340Z,979.36
2019-03-23T14:57:22.270Z,979.13
2019-03-23T14:58:32.211Z,979.49
2019-03-23T14:59:42.214Z,979.59
2019-03-23T15:00:52.140Z,979.46
2019-03-23T15:02:02.102Z,979.14
2019-03-23T15:03:12.040Z,979.32
2019-03-23T15:04:21.964Z,979.46
2019-03-23T15:05:31.897Z,979.35
2019-03-23T15:06:41.884Z,979.42
2019-03-23T15:07:51.823Z,979.48
2019-03-23T15:09:01.759Z,979.33
2019-03-23T15:10:11.437Z,979.77
2019-03-23T15:11:21.377Z,979.42
2019-03-23T15:12:31.312Z,979.37
2019-03-23T15:13:41.277Z,979.46
2019-03-23T15:14:52.819Z,979.69
2019-03-23T15:16:02.754Z,979.67
2019-03-23T15:17:12.756Z,979.68
2019-03-23T15:18:22.684Z,979.84
2019-03-23T15:19:32.612Z,979.62
2019-03-23T15:20:42.542Z,979.56
2019-03-23T15:21:52.484Z,979.45
2019-03-23T15:23:02.517Z,979.6
2019-03-23T15:24:12.191Z,979.5
2019-03-23T15:25:22.124Z,979.27
2019-03-23T15:26:32.066Z,979.43
2019-03-23T15:27:42.018Z,979.54
2019-03-23T15:28:51.982Z,979.53
2019-03-23T15:30:01.914Z,979.65
2019-03-23T15:31:11.858Z,979.36
2019-03-23T15:32:21.788Z,979.38
2019-03-23T15:33:31.713Z,979.47
2019-03-23T15:34:41.695Z,979.31
2019-03-23T15:35:51.624Z,979.27
2019-03-23T15:37:01.547Z,979.31
2019-03-23T15:38:11.228Z,979.51
2019-03-23T15:39:21.172Z,979.39
2019-03-23T15:40:31.099Z,979.3
2019-03-23T15:41:41.027Z,979.57
2019-03-23T15:42:50.955Z,979.49
2019-03-23T15:44:00.886Z,979.27
2019-03-23T15:45:10.824Z,979.47